Pagina principale
METAR-TAF:

METAR-TAF

Aeroporti :

Nancy, Francia

latitudine: 48-41N, longitudine: 006-13E, altezza: 225 m

Osservazione

Il bollettino è stato emesso 26 minuti fa, alle 19:00 UTC
Vento 9 kt da ovest/nord-ovest, variando fra ovest e nord/nord-ovest
Temperature 25°C
Umidità 54%
Pressione 1010 hPa
Visibilità 10 km o più
nessuna nube inferiore a 1500 m e nessun cumulonembo

METAR: LFSN 191900Z AUTO 29009KT 260V340 CAVOK 25/15 Q1010

Ora: 21:26 (19:26 UTC)


TAF: mancante

Osservazioni e previsioni meteorologiche di più di 4000 aeroporti (messaggi METAR e TAF).

Le stazioni disponibili sono rappresentate dai dischi gialli e rossi sulla carta.

Puntare il mouse per vedere il nome della stazione.

Clicca sopra per visualizzare le osservazioni e previsioni meteorologiche.

Per cambiare la mappa : fare clic sui pulsanti verdi con una croce nera per ingrandire, il pulsante verde con un trattino per diminuire, o sulla freccia verde per le mappe adiacenti.


METAR-TAF: